sensor_id;sensor_type;location;lat;lon;timestamp;P1;durP1;ratioP1;P2;durP2;ratioP2
11685;SDS011;5899;51.282;6.094;2022-10-30T00:00:37;10.82;;;6.68;;
11685;SDS011;5899;51.282;6.094;2022-10-30T00:03:04;10.40;;;6.50;;
11685;SDS011;5899;51.282;6.094;2022-10-30T00:05:30;7.32;;;6.60;;
11685;SDS011;5899;51.282;6.094;2022-10-30T00:07:57;10.20;;;6.93;;
11685;SDS011;5899;51.282;6.094;2022-10-30T00:10:23;8.65;;;6.80;;
11685;SDS011;5899;51.282;6.094;2022-10-30T00:12:52;9.23;;;6.47;;
11685;SDS011;5899;51.282;6.094;2022-10-30T00:15:20;7.82;;;6.40;;
11685;SDS011;5899;51.282;6.094;2022-10-30T00:17:49;7.60;;;6.47;;
11685;SDS011;5899;51.282;6.094;2022-10-30T00:20:16;7.80;;;6.40;;
11685;SDS011;5899;51.282;6.094;2022-10-30T00:22:42;8.13;;;6.75;;
11685;SDS011;5899;51.282;6.094;2022-10-30T00:25:09;8.70;;;6.77;;
11685;SDS011;5899;51.282;6.094;2022-10-30T00:27:35;11.55;;;7.40;;
11685;SDS011;5899;51.282;6.094;2022-10-30T00:30:02;9.40;;;6.70;;
11685;SDS011;5899;51.282;6.094;2022-10-30T00:32:33;9.10;;;6.60;;
11685;SDS011;5899;51.282;6.094;2022-10-30T00:35:00;8.15;;;6.65;;
11685;SDS011;5899;51.282;6.094;2022-10-30T00:37:26;8.45;;;6.50;;
11685;SDS011;5899;51.282;6.094;2022-10-30T00:39:53;10.27;;;7.00;;
11685;SDS011;5899;51.282;6.094;2022-10-30T00:42:19;8.13;;;6.43;;
11685;SDS011;5899;51.282;6.094;2022-10-30T00:44:47;9.10;;;6.95;;
11685;SDS011;5899;51.282;6.094;2022-10-30T00:47:15;17.80;;;7.90;;
11685;SDS011;5899;51.282;6.094;2022-10-30T00:49:50;10.57;;;7.30;;
11685;SDS011;5899;51.282;6.094;2022-10-30T00:52:18;10.20;;;7.07;;
11685;SDS011;5899;51.282;6.094;2022-10-30T00:54:46;7.70;;;6.53;;
11685;SDS011;5899;51.282;6.094;2022-10-30T00:57:12;10.40;;;7.50;;
11685;SDS011;5899;51.282;6.094;2022-10-30T00:59:39;8.73;;;6.70;;
11685;SDS011;5899;51.282;6.094;2022-10-30T01:02:06;10.52;;;7.20;;
11685;SDS011;5899;51.282;6.094;2022-10-30T01:04:35;8.15;;;6.97;;
11685;SDS011;5899;51.282;6.094;2022-10-30T01:07:05;15.50;;;7.43;;
11685;SDS011;5899;51.282;6.094;2022-10-30T01:09:32;8.33;;;6.80;;
11685;SDS011;5899;51.282;6.094;2022-10-30T01:11:59;7.88;;;6.72;;
11685;SDS011;5899;51.282;6.094;2022-10-30T01:14:25;9.60;;;6.95;;
11685;SDS011;5899;51.282;6.094;2022-10-30T01:16:56;12.45;;;7.03;;
11685;SDS011;5899;51.282;6.094;2022-10-30T01:19:24;10.77;;;7.45;;
11685;SDS011;5899;51.282;6.094;2022-10-30T01:21:57;8.73;;;6.83;;
11685;SDS011;5899;51.282;6.094;2022-10-30T01:24:40;9.10;;;6.65;;
11685;SDS011;5899;51.282;6.094;2022-10-30T01:27:18;9.75;;;7.47;;
11685;SDS011;5899;51.282;6.094;2022-10-30T01:29:50;8.70;;;7.05;;
11685;SDS011;5899;51.282;6.094;2022-10-30T01:32:22;9.48;;;7.35;;
11685;SDS011;5899;51.282;6.094;2022-10-30T01:34:53;9.48;;;7.20;;
11685;SDS011;5899;51.282;6.094;2022-10-30T01:37:21;8.95;;;7.30;;
11685;SDS011;5899;51.282;6.094;2022-10-30T01:39:51;9.65;;;7.70;;
11685;SDS011;5899;51.282;6.094;2022-10-30T01:42:41;8.60;;;7.70;;
11685;SDS011;5899;51.282;6.094;2022-10-30T01:45:09;9.63;;;7.57;;
11685;SDS011;5899;51.282;6.094;2022-10-30T01:47:38;9.70;;;7.70;;
11685;SDS011;5899;51.282;6.094;2022-10-30T01:50:13;8.93;;;7.45;;
11685;SDS011;5899;51.282;6.094;2022-10-30T01:52:45;10.33;;;7.67;;
11685;SDS011;5899;51.282;6.094;2022-10-30T01:55:19;10.90;;;7.93;;
11685;SDS011;5899;51.282;6.094;2022-10-30T01:57:50;7.93;;;7.15;;
11685;SDS011;5899;51.282;6.094;2022-10-30T02:00:20;8.63;;;7.72;;
11685;SDS011;5899;51.282;6.094;2022-10-30T02:02:47;10.17;;;7.30;;
11685;SDS011;5899;51.282;6.094;2022-10-30T02:05:16;8.77;;;7.60;;
11685;SDS011;5899;51.282;6.094;2022-10-30T02:07:45;9.70;;;7.95;;
11685;SDS011;5899;51.282;6.094;2022-10-30T02:10:14;10.45;;;8.05;;
11685;SDS011;5899;51.282;6.094;2022-10-30T02:12:43;10.30;;;8.10;;
11685;SDS011;5899;51.282;6.094;2022-10-30T02:15:09;10.55;;;8.05;;
11685;SDS011;5899;51.282;6.094;2022-10-30T02:17:39;9.57;;;7.82;;
11685;SDS011;5899;51.282;6.094;2022-10-30T02:20:06;8.88;;;7.60;;
11685;SDS011;5899;51.282;6.094;2022-10-30T02:22:34;9.02;;;7.63;;
11685;SDS011;5899;51.282;6.094;2022-10-30T02:25:01;8.90;;;7.53;;
11685;SDS011;5899;51.282;6.094;2022-10-30T02:27:27;8.83;;;7.37;;
11685;SDS011;5899;51.282;6.094;2022-10-30T02:29:53;9.52;;;7.93;;
11685;SDS011;5899;51.282;6.094;2022-10-30T02:32:22;11.00;;;8.02;;
11685;SDS011;5899;51.282;6.094;2022-10-30T02:34:48;8.82;;;7.30;;
11685;SDS011;5899;51.282;6.094;2022-10-30T02:37:14;11.30;;;7.80;;
11685;SDS011;5899;51.282;6.094;2022-10-30T02:39:42;9.80;;;7.95;;
11685;SDS011;5899;51.282;6.094;2022-10-30T02:42:09;8.48;;;7.15;;
11685;SDS011;5899;51.282;6.094;2022-10-30T02:44:36;9.20;;;7.43;;
11685;SDS011;5899;51.282;6.094;2022-10-30T02:47:02;9.17;;;8.10;;
11685;SDS011;5899;51.282;6.094;2022-10-30T02:49:31;10.48;;;7.70;;
11685;SDS011;5899;51.282;6.094;2022-10-30T02:51:57;9.15;;;7.55;;
11685;SDS011;5899;51.282;6.094;2022-10-30T02:54:25;9.20;;;7.82;;
11685;SDS011;5899;51.282;6.094;2022-10-30T02:56:53;9.07;;;8.18;;
11685;SDS011;5899;51.282;6.094;2022-10-30T02:59:20;9.20;;;7.70;;
11685;SDS011;5899;51.282;6.094;2022-10-30T03:01:46;10.88;;;6.82;;
11685;SDS011;5899;51.282;6.094;2022-10-30T03:04:13;9.25;;;7.65;;
11685;SDS011;5899;51.282;6.094;2022-10-30T03:06:42;9.73;;;7.32;;
11685;SDS011;5899;51.282;6.094;2022-10-30T03:09:09;10.15;;;7.13;;
11685;SDS011;5899;51.282;6.094;2022-10-30T03:11:35;9.63;;;7.68;;
11685;SDS011;5899;51.282;6.094;2022-10-30T03:14:07;9.80;;;7.53;;
11685;SDS011;5899;51.282;6.094;2022-10-30T03:16:35;8.95;;;7.47;;
11685;SDS011;5899;51.282;6.094;2022-10-30T03:19:01;11.43;;;8.05;;
11685;SDS011;5899;51.282;6.094;2022-10-30T03:21:28;8.18;;;7.10;;
11685;SDS011;5899;51.282;6.094;2022-10-30T03:23:55;11.55;;;8.10;;
11685;SDS011;5899;51.282;6.094;2022-10-30T03:26:21;8.82;;;7.20;;
11685;SDS011;5899;51.282;6.094;2022-10-30T03:28:48;11.30;;;7.50;;
11685;SDS011;5899;51.282;6.094;2022-10-30T03:31:16;9.30;;;7.22;;
11685;SDS011;5899;51.282;6.094;2022-10-30T03:33:43;10.43;;;7.55;;
11685;SDS011;5899;51.282;6.094;2022-10-30T03:36:11;10.00;;;7.13;;
11685;SDS011;5899;51.282;6.094;2022-10-30T03:38:39;11.82;;;8.40;;
11685;SDS011;5899;51.282;6.094;2022-10-30T03:41:06;8.60;;;7.03;;
11685;SDS011;5899;51.282;6.094;2022-10-30T03:43:32;8.38;;;7.03;;
11685;SDS011;5899;51.282;6.094;2022-10-30T03:45:59;10.27;;;6.60;;
11685;SDS011;5899;51.282;6.094;2022-10-30T03:48:28;9.43;;;7.22;;
11685;SDS011;5899;51.282;6.094;2022-10-30T03:50:55;10.05;;;7.70;;
11685;SDS011;5899;51.282;6.094;2022-10-30T03:53:23;9.15;;;6.88;;
11685;SDS011;5899;51.282;6.094;2022-10-30T03:55:55;8.50;;;7.53;;
11685;SDS011;5899;51.282;6.094;2022-10-30T03:58:22;9.00;;;7.25;;
11685;SDS011;5899;51.282;6.094;2022-10-30T04:00:53;9.32;;;7.10;;
11685;SDS011;5899;51.282;6.094;2022-10-30T04:03:20;10.73;;;7.67;;
11685;SDS011;5899;51.282;6.094;2022-10-30T04:05:48;9.48;;;7.22;;
11685;SDS011;5899;51.282;6.094;2022-10-30T04:08:17;8.57;;;6.90;;
11685;SDS011;5899;51.282;6.094;2022-10-30T04:10:46;10.10;;;7.00;;
11685;SDS011;5899;51.282;6.094;2022-10-30T04:13:13;9.32;;;6.80;;
11685;SDS011;5899;51.282;6.094;2022-10-30T04:15:40;9.83;;;7.30;;
11685;SDS011;5899;51.282;6.094;2022-10-30T04:18:07;11.50;;;7.13;;
11685;SDS011;5899;51.282;6.094;2022-10-30T04:20:35;8.95;;;7.25;;
11685;SDS011;5899;51.282;6.094;2022-10-30T04:23:05;8.20;;;7.30;;
11685;SDS011;5899;51.282;6.094;2022-10-30T04:25:32;9.68;;;7.22;;
11685;SDS011;5899;51.282;6.094;2022-10-30T04:27:58;9.23;;;7.13;;
11685;SDS011;5899;51.282;6.094;2022-10-30T04:30:27;9.15;;;6.82;;
11685;SDS011;5899;51.282;6.094;2022-10-30T04:32:58;8.20;;;6.63;;
11685;SDS011;5899;51.282;6.094;2022-10-30T04:35:28;9.43;;;7.10;;
11685;SDS011;5899;51.282;6.094;2022-10-30T04:37:56;8.83;;;7.03;;
11685;SDS011;5899;51.282;6.094;2022-10-30T04:40:24;9.32;;;7.53;;
11685;SDS011;5899;51.282;6.094;2022-10-30T04:42:53;24.00;;;8.25;;
11685;SDS011;5899;51.282;6.094;2022-10-30T04:45:19;11.38;;;7.65;;
11685;SDS011;5899;51.282;6.094;2022-10-30T04:47:46;8.35;;;7.43;;
11685;SDS011;5899;51.282;6.094;2022-10-30T04:50:13;8.75;;;7.50;;
11685;SDS011;5899;51.282;6.094;2022-10-30T04:52:40;10.40;;;7.25;;
11685;SDS011;5899;51.282;6.094;2022-10-30T04:55:07;10.07;;;7.40;;
11685;SDS011;5899;51.282;6.094;2022-10-30T04:57:36;10.20;;;6.80;;
11685;SDS011;5899;51.282;6.094;2022-10-30T05:00:11;9.32;;;7.00;;
11685;SDS011;5899;51.282;6.094;2022-10-30T05:02:51;10.77;;;6.82;;
11685;SDS011;5899;51.282;6.094;2022-10-30T05:05:18;8.77;;;6.80;;
11685;SDS011;5899;51.282;6.094;2022-10-30T05:07:45;10.48;;;7.15;;
11685;SDS011;5899;51.282;6.094;2022-10-30T05:10:13;10.65;;;7.40;;
11685;SDS011;5899;51.282;6.094;2022-10-30T05:12:42;10.13;;;7.43;;
11685;SDS011;5899;51.282;6.094;2022-10-30T05:15:09;7.25;;;6.43;;
11685;SDS011;5899;51.282;6.094;2022-10-30T05:17:36;9.75;;;7.68;;
11685;SDS011;5899;51.282;6.094;2022-10-30T05:20:03;10.17;;;7.40;;
11685;SDS011;5899;51.282;6.094;2022-10-30T05:22:29;10.13;;;7.63;;
11685;SDS011;5899;51.282;6.094;2022-10-30T05:24:56;8.93;;;7.22;;
11685;SDS011;5899;51.282;6.094;2022-10-30T05:27:22;16.70;;;7.88;;
11685;SDS011;5899;51.282;6.094;2022-10-30T05:29:51;16.25;;;7.45;;
11685;SDS011;5899;51.282;6.094;2022-10-30T05:32:17;10.02;;;7.20;;
11685;SDS011;5899;51.282;6.094;2022-10-30T05:34:44;10.57;;;7.40;;
11685;SDS011;5899;51.282;6.094;2022-10-30T05:37:10;10.75;;;6.85;;
11685;SDS011;5899;51.282;6.094;2022-10-30T05:39:37;8.90;;;7.15;;
11685;SDS011;5899;51.282;6.094;2022-10-30T05:42:03;8.35;;;6.68;;
11685;SDS011;5899;51.282;6.094;2022-10-30T05:44:30;10.00;;;6.87;;
11685;SDS011;5899;51.282;6.094;2022-10-30T05:46:58;9.63;;;7.10;;
11685;SDS011;5899;51.282;6.094;2022-10-30T05:49:24;9.93;;;7.10;;
11685;SDS011;5899;51.282;6.094;2022-10-30T05:51:51;9.50;;;7.10;;
11685;SDS011;5899;51.282;6.094;2022-10-30T05:54:17;8.48;;;7.35;;
11685;SDS011;5899;51.282;6.094;2022-10-30T05:56:47;7.97;;;6.70;;
11685;SDS011;5899;51.282;6.094;2022-10-30T05:59:13;13.70;;;7.15;;
11685;SDS011;5899;51.282;6.094;2022-10-30T06:01:40;9.48;;;6.82;;
11685;SDS011;5899;51.282;6.094;2022-10-30T06:04:08;7.82;;;6.97;;
11685;SDS011;5899;51.282;6.094;2022-10-30T06:06:35;12.68;;;7.57;;
11685;SDS011;5899;51.282;6.094;2022-10-30T06:09:04;8.57;;;6.65;;
11685;SDS011;5899;51.282;6.094;2022-10-30T06:11:32;10.32;;;7.10;;
11685;SDS011;5899;51.282;6.094;2022-10-30T06:14:04;9.25;;;7.70;;
11685;SDS011;5899;51.282;6.094;2022-10-30T06:16:31;8.63;;;7.73;;
11685;SDS011;5899;51.282;6.094;2022-10-30T06:18:57;8.98;;;7.20;;
11685;SDS011;5899;51.282;6.094;2022-10-30T06:21:25;10.90;;;8.57;;
11685;SDS011;5899;51.282;6.094;2022-10-30T06:23:52;10.73;;;7.00;;
11685;SDS011;5899;51.282;6.094;2022-10-30T06:26:19;11.35;;;7.72;;
11685;SDS011;5899;51.282;6.094;2022-10-30T06:28:46;9.77;;;8.20;;
11685;SDS011;5899;51.282;6.094;2022-10-30T06:31:13;9.30;;;7.82;;
11685;SDS011;5899;51.282;6.094;2022-10-30T06:33:39;9.20;;;7.82;;
11685;SDS011;5899;51.282;6.094;2022-10-30T06:36:06;11.80;;;8.20;;
11685;SDS011;5899;51.282;6.094;2022-10-30T06:38:34;11.95;;;8.55;;
11685;SDS011;5899;51.282;6.094;2022-10-30T06:41:00;14.23;;;9.10;;
11685;SDS011;5899;51.282;6.094;2022-10-30T06:43:27;12.32;;;8.73;;
11685;SDS011;5899;51.282;6.094;2022-10-30T06:45:53;9.68;;;8.05;;
11685;SDS011;5899;51.282;6.094;2022-10-30T06:48:20;10.68;;;7.90;;
11685;SDS011;5899;51.282;6.094;2022-10-30T06:50:46;10.68;;;8.00;;
11685;SDS011;5899;51.282;6.094;2022-10-30T06:53:18;9.38;;;7.53;;
11685;SDS011;5899;51.282;6.094;2022-10-30T06:55:46;12.10;;;8.30;;
11685;SDS011;5899;51.282;6.094;2022-10-30T06:58:18;10.10;;;7.75;;
11685;SDS011;5899;51.282;6.094;2022-10-30T07:00:45;9.37;;;7.90;;
11685;SDS011;5899;51.282;6.094;2022-10-30T07:03:11;13.60;;;8.75;;
11685;SDS011;5899;51.282;6.094;2022-10-30T07:05:38;9.70;;;8.35;;
11685;SDS011;5899;51.282;6.094;2022-10-30T07:08:05;11.10;;;8.73;;
11685;SDS011;5899;51.282;6.094;2022-10-30T07:10:31;11.57;;;8.88;;
11685;SDS011;5899;51.282;6.094;2022-10-30T07:12:59;12.13;;;9.02;;
11685;SDS011;5899;51.282;6.094;2022-10-30T07:15:26;13.95;;;8.75;;
11685;SDS011;5899;51.282;6.094;2022-10-30T07:17:55;10.47;;;8.13;;
11685;SDS011;5899;51.282;6.094;2022-10-30T07:20:22;11.10;;;8.53;;
11685;SDS011;5899;51.282;6.094;2022-10-30T07:22:50;8.47;;;7.57;;
11685;SDS011;5899;51.282;6.094;2022-10-30T07:25:18;12.67;;;8.20;;
11685;SDS011;5899;51.282;6.094;2022-10-30T07:27:45;13.27;;;8.13;;
11685;SDS011;5899;51.282;6.094;2022-10-30T07:30:14;9.38;;;7.82;;
11685;SDS011;5899;51.282;6.094;2022-10-30T07:32:42;9.10;;;7.72;;
11685;SDS011;5899;51.282;6.094;2022-10-30T07:35:12;11.97;;;8.27;;
11685;SDS011;5899;51.282;6.094;2022-10-30T07:37:39;13.50;;;9.02;;
11685;SDS011;5899;51.282;6.094;2022-10-30T07:40:06;8.70;;;7.83;;
11685;SDS011;5899;51.282;6.094;2022-10-30T07:42:33;10.07;;;8.27;;
11685;SDS011;5899;51.282;6.094;2022-10-30T07:44:59;10.02;;;8.13;;
11685;SDS011;5899;51.282;6.094;2022-10-30T07:47:27;10.70;;;8.40;;
11685;SDS011;5899;51.282;6.094;2022-10-30T07:49:55;9.97;;;7.90;;
11685;SDS011;5899;51.282;6.094;2022-10-30T07:52:21;9.43;;;7.15;;
11685;SDS011;5899;51.282;6.094;2022-10-30T07:54:48;10.15;;;7.22;;
11685;SDS011;5899;51.282;6.094;2022-10-30T07:57:14;11.00;;;7.72;;
11685;SDS011;5899;51.282;6.094;2022-10-30T07:59:42;11.15;;;7.75;;
11685;SDS011;5899;51.282;6.094;2022-10-30T08:02:09;9.60;;;7.85;;
11685;SDS011;5899;51.282;6.094;2022-10-30T08:04:39;12.27;;;8.43;;
11685;SDS011;5899;51.282;6.094;2022-10-30T08:07:09;11.93;;;8.00;;
11685;SDS011;5899;51.282;6.094;2022-10-30T08:09:37;9.93;;;7.28;;
11685;SDS011;5899;51.282;6.094;2022-10-30T08:12:04;10.90;;;8.03;;
11685;SDS011;5899;51.282;6.094;2022-10-30T08:14:36;10.55;;;7.97;;
11685;SDS011;5899;51.282;6.094;2022-10-30T08:17:03;11.10;;;7.80;;
11685;SDS011;5899;51.282;6.094;2022-10-30T08:19:31;11.68;;;7.85;;
11685;SDS011;5899;51.282;6.094;2022-10-30T08:21:59;11.40;;;8.15;;
11685;SDS011;5899;51.282;6.094;2022-10-30T08:24:26;10.18;;;7.25;;
11685;SDS011;5899;51.282;6.094;2022-10-30T08:26:53;11.18;;;7.40;;
11685;SDS011;5899;51.282;6.094;2022-10-30T08:29:19;10.05;;;6.95;;
11685;SDS011;5899;51.282;6.094;2022-10-30T08:31:47;10.15;;;8.00;;
11685;SDS011;5899;51.282;6.094;2022-10-30T08:34:15;11.70;;;7.43;;
11685;SDS011;5899;51.282;6.094;2022-10-30T08:36:47;9.90;;;7.20;;
11685;SDS011;5899;51.282;6.094;2022-10-30T08:39:15;10.65;;;6.97;;
11685;SDS011;5899;51.282;6.094;2022-10-30T08:41:41;10.10;;;6.70;;
11685;SDS011;5899;51.282;6.094;2022-10-30T08:44:08;10.18;;;7.25;;
11685;SDS011;5899;51.282;6.094;2022-10-30T08:46:34;9.23;;;6.68;;
11685;SDS011;5899;51.282;6.094;2022-10-30T08:49:01;10.30;;;6.73;;
11685;SDS011;5899;51.282;6.094;2022-10-30T08:51:30;12.18;;;7.35;;
11685;SDS011;5899;51.282;6.094;2022-10-30T08:53:57;11.80;;;8.43;;
11685;SDS011;5899;51.282;6.094;2022-10-30T08:56:25;13.38;;;8.65;;
11685;SDS011;5899;51.282;6.094;2022-10-30T08:58:51;11.48;;;8.80;;
11685;SDS011;5899;51.282;6.094;2022-10-30T09:01:18;9.70;;;8.23;;
11685;SDS011;5899;51.282;6.094;2022-10-30T09:03:45;9.70;;;6.43;;
11685;SDS011;5899;51.282;6.094;2022-10-30T09:06:12;8.38;;;6.32;;
11685;SDS011;5899;51.282;6.094;2022-10-30T09:08:38;8.77;;;5.90;;
11685;SDS011;5899;51.282;6.094;2022-10-30T09:11:05;8.75;;;6.00;;
11685;SDS011;5899;51.282;6.094;2022-10-30T09:13:33;11.73;;;6.50;;
11685;SDS011;5899;51.282;6.094;2022-10-30T09:15:59;10.85;;;6.13;;
11685;SDS011;5899;51.282;6.094;2022-10-30T09:18:26;9.27;;;6.50;;
11685;SDS011;5899;51.282;6.094;2022-10-30T09:20:52;10.57;;;6.57;;
11685;SDS011;5899;51.282;6.094;2022-10-30T09:23:19;10.70;;;6.32;;
11685;SDS011;5899;51.282;6.094;2022-10-30T09:25:46;11.70;;;6.13;;
11685;SDS011;5899;51.282;6.094;2022-10-30T09:28:12;10.20;;;6.73;;
11685;SDS011;5899;51.282;6.094;2022-10-30T09:30:43;11.00;;;6.75;;
11685;SDS011;5899;51.282;6.094;2022-10-30T09:33:10;10.65;;;7.25;;
11685;SDS011;5899;51.282;6.094;2022-10-30T09:35:39;9.93;;;6.93;;
11685;SDS011;5899;51.282;6.094;2022-10-30T09:38:08;11.38;;;7.25;;
11685;SDS011;5899;51.282;6.094;2022-10-30T09:40:40;12.20;;;6.93;;
11685;SDS011;5899;51.282;6.094;2022-10-30T09:43:14;9.35;;;6.03;;
11685;SDS011;5899;51.282;6.094;2022-10-30T09:45:53;10.85;;;6.18;;
11685;SDS011;5899;51.282;6.094;2022-10-30T09:51:04;8.30;;;5.60;;
11685;SDS011;5899;51.282;6.094;2022-10-30T09:53:37;8.40;;;5.23;;
11685;SDS011;5899;51.282;6.094;2022-10-30T09:56:11;8.25;;;5.80;;
11685;SDS011;5899;51.282;6.094;2022-10-30T09:58:40;9.15;;;5.45;;
11685;SDS011;5899;51.282;6.094;2022-10-30T10:01:13;8.93;;;5.53;;
11685;SDS011;5899;51.282;6.094;2022-10-30T10:03:49;6.90;;;5.40;;
11685;SDS011;5899;51.282;6.094;2022-10-30T10:06:18;8.47;;;4.90;;
11685;SDS011;5899;51.282;6.094;2022-10-30T10:08:47;9.15;;;4.80;;
11685;SDS011;5899;51.282;6.094;2022-10-30T10:11:16;9.03;;;5.03;;
11685;SDS011;5899;51.282;6.094;2022-10-30T10:13:45;8.97;;;4.87;;
11685;SDS011;5899;51.282;6.094;2022-10-30T10:16:15;14.13;;;6.15;;
11685;SDS011;5899;51.282;6.094;2022-10-30T10:18:44;8.43;;;5.20;;
11685;SDS011;5899;51.282;6.094;2022-10-30T10:21:13;8.13;;;5.05;;
11685;SDS011;5899;51.282;6.094;2022-10-30T10:23:45;8.32;;;5.10;;
11685;SDS011;5899;51.282;6.094;2022-10-30T10:26:17;8.35;;;5.30;;
11685;SDS011;5899;51.282;6.094;2022-10-30T10:28:58;7.22;;;4.65;;
11685;SDS011;5899;51.282;6.094;2022-10-30T10:31:32;8.77;;;5.07;;
11685;SDS011;5899;51.282;6.094;2022-10-30T10:34:08;8.88;;;4.80;;
11685;SDS011;5899;51.282;6.094;2022-10-30T10:36:41;9.98;;;5.22;;
11685;SDS011;5899;51.282;6.094;2022-10-30T10:39:20;8.98;;;5.32;;
11685;SDS011;5899;51.282;6.094;2022-10-30T10:41:54;10.75;;;5.25;;
11685;SDS011;5899;51.282;6.094;2022-10-30T10:44:28;8.63;;;4.93;;
11685;SDS011;5899;51.282;6.094;2022-10-30T10:47:13;10.25;;;5.63;;
11685;SDS011;5899;51.282;6.094;2022-10-30T10:49:45;10.13;;;5.00;;
11685;SDS011;5899;51.282;6.094;2022-10-30T10:52:16;8.98;;;5.60;;
11685;SDS011;5899;51.282;6.094;2022-10-30T10:54:44;8.53;;;5.37;;
11685;SDS011;5899;51.282;6.094;2022-10-30T10:57:15;8.95;;;5.28;;
11685;SDS011;5899;51.282;6.094;2022-10-30T10:59:46;9.05;;;5.70;;
11685;SDS011;5899;51.282;6.094;2022-10-30T11:02:26;14.35;;;5.65;;
11685;SDS011;5899;51.282;6.094;2022-10-30T11:04:54;9.45;;;5.57;;
11685;SDS011;5899;51.282;6.094;2022-10-30T11:07:28;7.82;;;5.32;;
11685;SDS011;5899;51.282;6.094;2022-10-30T11:09:56;9.18;;;5.03;;
11685;SDS011;5899;51.282;6.094;2022-10-30T11:12:26;9.33;;;5.63;;
11685;SDS011;5899;51.282;6.094;2022-10-30T11:14:53;11.25;;;5.45;;
11685;SDS011;5899;51.282;6.094;2022-10-30T11:17:20;10.30;;;5.35;;
11685;SDS011;5899;51.282;6.094;2022-10-30T11:19:56;7.85;;;5.13;;
11685;SDS011;5899;51.282;6.094;2022-10-30T11:22:26;9.32;;;5.43;;
11685;SDS011;5899;51.282;6.094;2022-10-30T11:24:53;10.38;;;5.43;;
11685;SDS011;5899;51.282;6.094;2022-10-30T11:27:26;9.40;;;4.75;;
11685;SDS011;5899;51.282;6.094;2022-10-30T11:29:57;9.00;;;5.20;;
11685;SDS011;5899;51.282;6.094;2022-10-30T11:32:25;12.10;;;5.28;;
11685;SDS011;5899;51.282;6.094;2022-10-30T11:35:10;8.80;;;4.63;;
11685;SDS011;5899;51.282;6.094;2022-10-30T11:37:39;10.18;;;4.82;;
11685;SDS011;5899;51.282;6.094;2022-10-30T11:40:15;7.22;;;4.88;;
11685;SDS011;5899;51.282;6.094;2022-10-30T11:42:42;10.55;;;5.00;;
11685;SDS011;5899;51.282;6.094;2022-10-30T11:45:15;6.78;;;4.25;;
11685;SDS011;5899;51.282;6.094;2022-10-30T11:47:44;10.73;;;4.90;;
11685;SDS011;5899;51.282;6.094;2022-10-30T11:50:17;8.80;;;4.30;;
11685;SDS011;5899;51.282;6.094;2022-10-30T11:52:50;9.50;;;4.45;;
11685;SDS011;5899;51.282;6.094;2022-10-30T11:55:23;9.27;;;4.50;;
11685;SDS011;5899;51.282;6.094;2022-10-30T11:58:02;10.07;;;4.45;;
11685;SDS011;5899;51.282;6.094;2022-10-30T12:00:33;10.02;;;5.00;;
11685;SDS011;5899;51.282;6.094;2022-10-30T12:03:24;8.20;;;5.20;;
11685;SDS011;5899;51.282;6.094;2022-10-30T12:06:05;11.82;;;4.70;;
11685;SDS011;5899;51.282;6.094;2022-10-30T12:08:33;10.23;;;4.85;;
11685;SDS011;5899;51.282;6.094;2022-10-30T12:11:03;8.32;;;4.68;;
11685;SDS011;5899;51.282;6.094;2022-10-30T12:13:36;10.85;;;5.20;;
11685;SDS011;5899;51.282;6.094;2022-10-30T12:16:13;7.95;;;4.85;;
11685;SDS011;5899;51.282;6.094;2022-10-30T12:18:47;8.63;;;5.35;;
11685;SDS011;5899;51.282;6.094;2022-10-30T12:21:20;8.27;;;4.90;;
11685;SDS011;5899;51.282;6.094;2022-10-30T12:23:49;12.20;;;5.80;;
11685;SDS011;5899;51.282;6.094;2022-10-30T12:26:16;10.32;;;5.40;;
11685;SDS011;5899;51.282;6.094;2022-10-30T12:28:46;9.13;;;5.22;;
11685;SDS011;5899;51.282;6.094;2022-10-30T12:31:17;9.93;;;5.03;;
11685;SDS011;5899;51.282;6.094;2022-10-30T12:33:46;9.07;;;5.05;;
11685;SDS011;5899;51.282;6.094;2022-10-30T12:36:16;10.55;;;5.72;;
11685;SDS011;5899;51.282;6.094;2022-10-30T12:38:54;9.02;;;5.25;;
11685;SDS011;5899;51.282;6.094;2022-10-30T12:41:41;9.00;;;5.05;;
11685;SDS011;5899;51.282;6.094;2022-10-30T12:44:24;7.50;;;4.83;;
11685;SDS011;5899;51.282;6.094;2022-10-30T12:46:59;8.60;;;5.10;;
11685;SDS011;5899;51.282;6.094;2022-10-30T12:49:28;10.77;;;5.70;;
11685;SDS011;5899;51.282;6.094;2022-10-30T12:52:00;10.07;;;5.15;;
11685;SDS011;5899;51.282;6.094;2022-10-30T12:54:37;10.45;;;5.53;;
11685;SDS011;5899;51.282;6.094;2022-10-30T12:57:10;9.02;;;4.90;;
11685;SDS011;5899;51.282;6.094;2022-10-30T12:59:51;11.50;;;5.45;;
11685;SDS011;5899;51.282;6.094;2022-10-30T13:02:25;8.23;;;5.28;;
11685;SDS011;5899;51.282;6.094;2022-10-30T13:05:04;9.20;;;5.28;;
11685;SDS011;5899;51.282;6.094;2022-10-30T13:07:38;9.25;;;4.93;;
11685;SDS011;5899;51.282;6.094;2022-10-30T13:10:24;8.93;;;4.80;;
11685;SDS011;5899;51.282;6.094;2022-10-30T13:13:04;8.38;;;5.28;;
11685;SDS011;5899;51.282;6.094;2022-10-30T13:15:40;8.55;;;4.70;;
11685;SDS011;5899;51.282;6.094;2022-10-30T13:18:12;9.75;;;5.32;;
11685;SDS011;5899;51.282;6.094;2022-10-30T13:20:53;8.10;;;5.20;;
11685;SDS011;5899;51.282;6.094;2022-10-30T13:24:08;9.50;;;4.88;;
11685;SDS011;5899;51.282;6.094;2022-10-30T13:26:38;9.35;;;4.75;;
11685;SDS011;5899;51.282;6.094;2022-10-30T13:29:11;9.82;;;5.20;;
11685;SDS011;5899;51.282;6.094;2022-10-30T13:32:00;10.75;;;4.65;;
11685;SDS011;5899;51.282;6.094;2022-10-30T13:34:52;9.45;;;5.15;;
11685;SDS011;5899;51.282;6.094;2022-10-30T13:37:30;7.68;;;4.78;;
11685;SDS011;5899;51.282;6.094;2022-10-30T13:40:04;8.52;;;4.57;;
11685;SDS011;5899;51.282;6.094;2022-10-30T13:45:36;6.43;;;4.50;;
11685;SDS011;5899;51.282;6.094;2022-10-30T13:48:12;11.27;;;4.97;;
11685;SDS011;5899;51.282;6.094;2022-10-30T13:50:56;8.13;;;4.85;;
11685;SDS011;5899;51.282;6.094;2022-10-30T13:53:37;10.25;;;5.30;;
11685;SDS011;5899;51.282;6.094;2022-10-30T13:56:50;9.90;;;4.80;;
11685;SDS011;5899;51.282;6.094;2022-10-30T13:59:40;8.00;;;4.70;;
11685;SDS011;5899;51.282;6.094;2022-10-30T14:02:16;8.02;;;4.53;;
11685;SDS011;5899;51.282;6.094;2022-10-30T14:05:17;8.23;;;4.75;;
11685;SDS011;5899;51.282;6.094;2022-10-30T14:07:52;7.10;;;4.37;;
11685;SDS011;5899;51.282;6.094;2022-10-30T14:10:26;8.30;;;4.70;;
11685;SDS011;5899;51.282;6.094;2022-10-30T14:13:06;9.57;;;4.93;;
11685;SDS011;5899;51.282;6.094;2022-10-30T14:15:42;9.45;;;5.05;;
11685;SDS011;5899;51.282;6.094;2022-10-30T14:18:42;7.85;;;4.68;;
11685;SDS011;5899;51.282;6.094;2022-10-30T14:24:00;10.60;;;5.15;;
11685;SDS011;5899;51.282;6.094;2022-10-30T14:26:45;9.67;;;4.80;;
11685;SDS011;5899;51.282;6.094;2022-10-30T14:41:19;9.02;;;5.55;;
11685;SDS011;5899;51.282;6.094;2022-10-30T14:43:54;7.72;;;5.10;;
11685;SDS011;5899;51.282;6.094;2022-10-30T14:46:25;8.82;;;5.03;;
11685;SDS011;5899;51.282;6.094;2022-10-30T14:48:57;7.97;;;5.60;;
11685;SDS011;5899;51.282;6.094;2022-10-30T14:51:27;7.72;;;5.25;;
11685;SDS011;5899;51.282;6.094;2022-10-30T14:53:58;10.02;;;5.68;;
11685;SDS011;5899;51.282;6.094;2022-10-30T14:56:33;12.18;;;6.20;;
11685;SDS011;5899;51.282;6.094;2022-10-30T14:59:20;10.57;;;5.97;;
11685;SDS011;5899;51.282;6.094;2022-10-30T15:01:49;10.40;;;5.93;;
11685;SDS011;5899;51.282;6.094;2022-10-30T15:04:21;9.68;;;5.65;;
11685;SDS011;5899;51.282;6.094;2022-10-30T15:06:53;7.60;;;5.10;;
11685;SDS011;5899;51.282;6.094;2022-10-30T15:09:26;12.35;;;5.72;;
11685;SDS011;5899;51.282;6.094;2022-10-30T15:12:04;7.55;;;5.10;;
11685;SDS011;5899;51.282;6.094;2022-10-30T15:14:33;7.28;;;4.97;;
11685;SDS011;5899;51.282;6.094;2022-10-30T15:17:01;9.18;;;5.50;;
11685;SDS011;5899;51.282;6.094;2022-10-30T15:19:29;7.93;;;5.20;;
11685;SDS011;5899;51.282;6.094;2022-10-30T15:21:56;7.47;;;5.22;;
11685;SDS011;5899;51.282;6.094;2022-10-30T15:24:23;8.85;;;5.47;;
11685;SDS011;5899;51.282;6.094;2022-10-30T15:26:51;11.07;;;5.32;;
11685;SDS011;5899;51.282;6.094;2022-10-30T15:29:20;8.70;;;5.28;;
11685;SDS011;5899;51.282;6.094;2022-10-30T15:31:58;10.10;;;5.40;;
11685;SDS011;5899;51.282;6.094;2022-10-30T15:34:25;8.40;;;5.23;;